createdAt,value
2022-10-19T02:31:55.503Z,99.99
2022-10-19T02:32:56.858Z,99.99
2022-10-19T02:33:57.217Z,99.99
2022-10-19T02:34:57.580Z,99.99
2022-10-19T02:35:57.948Z,99.99
2022-10-19T02:36:58.347Z,99.99
2022-10-19T02:37:58.662Z,99.99
2022-10-19T02:38:59.016Z,99.99
2022-10-19T02:39:59.384Z,99.99
2022-10-19T02:40:59.726Z,99.99
2022-10-19T02:42:00.106Z,99.99
2022-10-19T02:43:00.456Z,99.99
2022-10-19T02:44:00.821Z,99.99
2022-10-19T02:45:01.189Z,99.99
2022-10-19T02:46:07.547Z,99.99
2022-10-19T02:47:01.983Z,99.99
2022-10-19T02:48:02.259Z,99.99
2022-10-19T02:49:02.610Z,99.99
2022-10-19T02:50:02.985Z,99.99
2022-10-19T02:51:03.333Z,99.99
2022-10-19T02:52:03.758Z,99.99
2022-10-19T02:53:04.057Z,99.99
2022-10-19T02:54:05.410Z,99.99
2022-10-19T02:55:04.800Z,99.99
2022-10-19T02:56:05.133Z,99.93
2022-10-19T02:57:05.499Z,99.82
2022-10-19T02:58:05.861Z,99.52
2022-10-19T02:59:06.238Z,99.52
2022-10-19T03:00:06.625Z,99.41
2022-10-19T03:01:07.071Z,99.21
2022-10-19T03:02:07.350Z,99.21
2022-10-19T03:03:07.707Z,99.21
2022-10-19T03:04:08.058Z,99.31
2022-10-19T03:05:08.433Z,99.01
2022-10-19T03:06:08.830Z,98.90
2022-10-19T03:07:09.203Z,96.96
2022-10-19T03:08:09.524Z,96.71
2022-10-19T03:09:09.865Z,96.10
2022-10-19T03:10:10.214Z,96.20
2022-10-19T03:11:10.571Z,96.41
2022-10-19T03:12:10.935Z,96.61
2022-10-19T03:13:11.286Z,97.06
2022-10-19T03:14:11.666Z,97.06
2022-10-19T03:15:12.020Z,96.96
2022-10-19T03:16:12.411Z,97.16
2022-10-19T03:17:12.780Z,97.16
2022-10-19T03:18:13.099Z,97.47
2022-10-19T03:19:13.497Z,97.47
2022-10-19T03:20:13.815Z,97.57
2022-10-19T03:21:14.184Z,97.57
2022-10-19T03:22:14.592Z,97.37
2022-10-19T03:23:14.904Z,97.57
2022-10-19T03:24:15.257Z,97.57
2022-10-19T03:25:15.630Z,97.37
2022-10-19T03:26:15.980Z,97.27
2022-10-19T03:27:16.380Z,97.27
2022-10-19T03:28:16.697Z,96.66
2022-10-19T03:29:17.057Z,96.86
2022-10-19T03:30:17.452Z,96.45
2022-10-19T03:31:17.787Z,96.14
2022-10-19T03:32:18.174Z,96.34
2022-10-19T03:33:18.604Z,95.63
2022-10-19T03:34:18.886Z,95.84
2022-10-19T03:35:19.240Z,95.53
2022-10-19T03:36:19.608Z,95.43
2022-10-19T03:37:20.025Z,95.53
2022-10-19T03:38:20.516Z,95.22
2022-10-19T03:39:20.706Z,95.22
2022-10-19T03:40:21.070Z,95.12
2022-10-19T03:41:21.413Z,95.43
2022-10-19T03:42:21.829Z,95.22
2022-10-19T03:43:22.175Z,95.02
2022-10-19T03:44:22.577Z,94.92
2022-10-19T03:45:22.915Z,94.81
2022-10-19T03:46:23.261Z,94.71
2022-10-19T03:47:23.637Z,94.40
2022-10-19T03:48:23.993Z,94.40
2022-10-19T03:49:24.366Z,94.30
2022-10-19T03:50:24.719Z,93.89
2022-10-19T03:51:25.078Z,93.99
2022-10-19T03:52:25.459Z,93.48
2022-10-19T03:53:25.805Z,93.59
2022-10-19T03:54:27.457Z,93.54
2022-10-19T03:55:26.514Z,93.54
2022-10-19T03:56:26.869Z,93.59
2022-10-19T03:57:27.324Z,93.79
2022-10-19T03:58:27.610Z,93.69
2022-10-19T03:59:27.957Z,93.69
2022-10-19T04:00:28.317Z,93.79
2022-10-19T04:01:28.724Z,93.38
2022-10-19T04:02:29.065Z,93.38
2022-10-19T04:03:29.536Z,93.79
2022-10-19T04:04:29.759Z,93.89
2022-10-19T04:05:30.107Z,93.99
2022-10-19T04:06:30.473Z,93.99
2022-10-19T04:07:30.965Z,94.20
2022-10-19T04:08:31.210Z,93.89
2022-10-19T04:09:31.567Z,93.69
2022-10-19T04:10:31.941Z,93.99
2022-10-19T04:11:32.295Z,93.79
2022-10-19T04:12:32.664Z,93.79
2022-10-19T04:13:33.003Z,93.69
2022-10-19T04:14:45.663Z,93.69
2022-10-19T04:15:33.715Z,93.48
2022-10-19T04:16:34.176Z,93.69
2022-10-19T04:17:34.802Z,93.38
2022-10-19T04:18:34.810Z,93.18
2022-10-19T04:19:35.165Z,93.28
2022-10-19T04:20:35.530Z,93.48
2022-10-19T04:21:35.902Z,93.48
2022-10-19T04:22:36.398Z,93.18
2022-10-19T04:23:36.627Z,93.28
2022-10-19T04:24:36.979Z,93.38
2022-10-19T04:25:37.333Z,93.59
2022-10-19T04:26:37.705Z,93.38
2022-10-19T04:27:38.072Z,93.48
2022-10-19T04:28:38.496Z,93.38
2022-10-19T04:29:38.787Z,93.38
2022-10-19T04:30:39.158Z,93.48
2022-10-19T04:31:39.506Z,93.59
2022-10-19T04:32:39.900Z,93.79
2022-10-19T04:33:40.362Z,93.69
2022-10-19T04:34:40.653Z,93.79
2022-10-19T04:35:41.004Z,93.79
2022-10-19T04:36:41.346Z,93.69
2022-10-19T04:37:41.757Z,94.20
2022-10-19T04:38:42.062Z,94.10
2022-10-19T04:39:42.421Z,94.30
2022-10-19T04:40:42.777Z,94.10
2022-10-19T04:41:43.146Z,94.81
2022-10-19T04:42:43.509Z,94.96
2022-10-19T04:43:43.859Z,94.85
2022-10-19T04:44:44.213Z,94.96
2022-10-19T04:45:44.571Z,95.06
2022-10-19T04:46:44.920Z,95.06
2022-10-19T04:47:45.298Z,95.06
2022-10-19T04:48:45.657Z,95.26
2022-10-19T04:49:46.015Z,94.85
2022-10-19T04:50:46.360Z,94.85
2022-10-19T04:51:46.725Z,94.96
2022-10-19T04:52:47.097Z,94.65
2022-10-19T04:53:47.456Z,94.45
2022-10-19T04:54:47.775Z,94.34
2022-10-19T04:55:48.138Z,94.34
2022-10-19T04:56:48.497Z,94.04
2022-10-19T04:57:48.895Z,93.63
2022-10-19T04:58:49.255Z,93.59
2022-10-19T04:59:49.603Z,93.59
2022-10-19T05:00:50.045Z,93.63
2022-10-19T05:01:50.312Z,93.84
2022-10-19T05:02:50.686Z,93.84
2022-10-19T05:03:51.099Z,93.73
2022-10-19T05:04:51.411Z,93.63
2022-10-19T05:05:51.766Z,93.52
2022-10-19T05:06:52.122Z,93.59
2022-10-19T05:07:52.505Z,93.28
2022-10-19T05:08:52.855Z,92.77
2022-10-19T05:09:53.214Z,92.87
2022-10-19T05:10:53.563Z,93.07
2022-10-19T05:11:53.928Z,93.28
2022-10-19T05:12:54.311Z,93.18
2022-10-19T05:13:54.676Z,92.97
2022-10-19T05:14:55.061Z,93.07
2022-10-19T05:15:55.431Z,93.07
2022-10-19T05:16:55.810Z,93.28
2022-10-19T05:17:56.157Z,92.97
2022-10-19T05:18:56.321Z,92.77
2022-10-19T05:19:56.488Z,93.07
2022-10-19T05:20:56.696Z,93.28
2022-10-19T05:21:57.053Z,93.18
2022-10-19T05:22:57.178Z,93.38
2022-10-19T05:23:57.345Z,93.48
2022-10-19T05:24:58.259Z,93.48
2022-10-19T05:25:58.122Z,93.48
2022-10-19T05:26:58.362Z,93.59
2022-10-19T05:27:58.538Z,93.69
2022-10-19T05:28:58.875Z,93.79
2022-10-19T05:29:59.011Z,93.89
2022-10-19T05:30:59.267Z,93.99
2022-10-19T05:31:59.432Z,94.30
2022-10-19T05:32:59.641Z,94.51
2022-10-19T05:33:59.824Z,94.71
2022-10-19T05:34:59.953Z,94.65
2022-10-19T05:36:00.135Z,94.14
2022-10-19T05:37:00.346Z,93.93
2022-10-19T05:38:00.650Z,94.04
2022-10-19T05:39:00.903Z,94.14
2022-10-19T05:40:01.077Z,94.45
2022-10-19T05:41:01.235Z,94.65
2022-10-19T05:42:01.434Z,95.17
2022-10-19T05:43:01.633Z,94.24
2022-10-19T05:44:01.779Z,94.55
2022-10-19T05:45:01.948Z,94.34
2022-10-19T05:46:02.149Z,94.65
2022-10-19T05:47:02.439Z,94.34
2022-10-19T05:48:02.722Z,94.65
2022-10-19T05:49:02.889Z,94.45
2022-10-19T05:50:03.067Z,95.17
2022-10-19T05:51:03.353Z,95.06
2022-10-19T05:52:03.657Z,95.06
2022-10-19T05:53:03.947Z,95.26
2022-10-19T05:54:04.140Z,95.06
2022-10-19T05:55:04.532Z,95.17
2022-10-19T05:56:04.744Z,95.37
2022-10-19T05:57:04.908Z,95.57
2022-10-19T05:58:05.129Z,95.26
2022-10-19T05:59:05.258Z,95.72
2022-10-19T06:00:05.447Z,95.92
2022-10-19T06:01:05.741Z,96.23
2022-10-19T06:02:06.104Z,96.33
2022-10-19T06:03:06.251Z,95.82
2022-10-19T06:04:06.456Z,95.92
2022-10-19T06:05:06.724Z,96.08
2022-10-19T06:06:06.911Z,96.19
2022-10-19T06:07:07.192Z,96.29
2022-10-19T06:08:07.362Z,96.08
2022-10-19T06:09:07.516Z,95.67
2022-10-19T06:10:07.673Z,95.37
2022-10-19T06:11:07.886Z,95.57
2022-10-19T06:12:08.160Z,94.96
2022-10-19T06:13:08.457Z,94.81
2022-10-19T06:14:08.624Z,95.02
2022-10-19T14:00:46.206Z,70.79
2022-10-19T14:01:47.418Z,70.45
2022-10-19T14:02:47.564Z,69.71
2022-10-19T14:03:47.776Z,69.78
2022-10-19T14:04:47.914Z,70.11
2022-10-19T14:05:48.117Z,70.21
2022-10-19T14:06:48.288Z,70.83
2022-10-19T14:07:48.519Z,70.83
2022-10-19T14:08:48.782Z,71.23
2022-10-19T14:09:48.884Z,71.23
2022-10-19T14:11:00.471Z,70.21
2022-10-19T14:11:49.250Z,71.13
2022-10-19T14:12:49.447Z,71.44
2022-10-19T14:13:49.677Z,71.09
2022-10-19T14:14:49.945Z,71.47
2022-10-19T14:15:50.092Z,71.00
2022-10-19T14:16:50.228Z,70.48
2022-10-19T14:17:50.384Z,70.72
2022-10-19T14:18:50.591Z,70.72
2022-10-19T14:19:50.782Z,70.52
2022-10-19T14:20:50.985Z,70.72
2022-10-19T14:21:51.128Z,70.52
2022-10-19T14:22:51.324Z,70.28
2022-10-19T14:23:51.513Z,69.98
2022-10-19T14:24:51.705Z,68.76
2022-10-19T14:25:51.923Z,68.08
2022-10-19T14:26:52.081Z,68.83
2022-10-19T14:27:52.291Z,68.52
2022-10-19T14:28:52.479Z,68.22
2022-10-19T14:29:52.674Z,68.66
2022-10-19T14:30:52.920Z,68.73
2022-10-19T14:31:53.063Z,69.23
2022-10-19T14:32:54.761Z,69.84
2022-10-19T14:33:53.436Z,69.84
2022-10-19T14:34:53.787Z,69.64
2022-10-19T14:35:53.849Z,69.95
2022-10-19T14:36:54.034Z,70.35
2022-10-19T14:37:54.261Z,70.15
2022-10-19T14:38:54.419Z,70.15
2022-10-19T14:39:54.627Z,70.15
2022-10-19T14:40:54.837Z,70.08
2022-10-19T14:41:54.986Z,70.79
2022-10-19T14:42:55.184Z,71.06
2022-10-19T14:43:55.351Z,71.26
2022-10-19T14:44:55.545Z,71.09
2022-10-19T14:45:55.750Z,71.50
2022-10-19T14:46:55.918Z,71.40
2022-10-19T14:47:56.062Z,71.50
2022-10-19T14:48:56.284Z,71.94
2022-10-19T14:49:56.418Z,72.04
2022-10-19T14:50:56.634Z,71.73
2022-10-19T14:51:56.822Z,71.53
2022-10-19T14:52:57.000Z,71.73
2022-10-19T14:53:57.155Z,72.31
2022-10-19T14:54:57.353Z,71.50
2022-10-19T14:55:57.566Z,71.43
2022-10-19T14:56:57.739Z,71.64
2022-10-19T14:57:57.931Z,71.73
2022-10-19T14:58:58.127Z,71.64
2022-10-19T14:59:58.322Z,71.84
2022-10-19T15:00:58.537Z,71.64
2022-10-19T15:01:58.752Z,71.84
2022-10-19T15:02:58.908Z,71.12
2022-10-19T15:03:59.081Z,71.33
2022-10-19T15:04:59.267Z,71.73
2022-10-19T15:05:59.477Z,70.82
2022-10-19T15:06:59.645Z,71.53
2022-10-19T15:07:59.812Z,71.94
2022-10-19T15:09:00.011Z,71.43
2022-10-19T15:10:00.210Z,71.33
2022-10-19T15:11:00.425Z,71.73
2022-10-19T15:12:00.604Z,71.73
2022-10-19T15:13:00.789Z,71.84
2022-10-19T15:14:00.979Z,72.14
2022-10-19T15:15:01.170Z,71.67
2022-10-19T15:16:01.376Z,70.96
2022-10-19T15:17:01.564Z,71.47
2022-10-19T15:18:01.958Z,71.57
2022-10-19T15:19:01.920Z,71.87
2022-10-19T15:20:02.270Z,71.87
2022-10-19T15:21:12.117Z,72.08
2022-10-19T15:22:02.481Z,72.38
2022-10-19T15:23:02.664Z,72.58
2022-10-19T15:24:02.860Z,73.19
2022-10-19T15:25:03.048Z,74.11
2022-10-19T15:26:03.212Z,73.30
2022-10-19T15:27:09.384Z,73.23
2022-10-19T15:28:03.675Z,73.63
2022-10-19T15:29:03.795Z,73.94
2022-10-19T15:30:03.937Z,73.23
2022-10-19T15:31:04.217Z,73.23
2022-10-19T15:32:04.304Z,73.33
2022-10-19T15:33:04.518Z,73.84
2022-10-19T15:34:04.674Z,74.15
2022-10-19T15:35:07.585Z,73.84
2022-10-19T15:36:05.252Z,73.63
2022-10-19T15:37:07.323Z,74.65
2022-10-19T15:38:05.432Z,75.26
2022-10-19T15:39:24.566Z,75.06
2022-10-19T15:40:05.835Z,75.09
2022-10-19T15:41:06.142Z,75.20
2022-10-19T15:42:06.426Z,75.09
2022-10-19T15:43:06.726Z,75.50
2022-10-19T15:44:07.021Z,75.81
2022-10-19T15:45:07.220Z,76.11
2022-10-19T15:46:07.431Z,76.21
2022-10-19T15:47:07.597Z,76.56
2022-10-19T15:48:07.747Z,76.76
2022-10-19T15:49:07.929Z,76.96
2022-10-19T15:50:08.107Z,77.06
2022-10-19T15:51:08.409Z,77.26
2022-10-19T15:52:08.683Z,77.67
2022-10-19T15:53:08.990Z,77.81
2022-10-19T15:54:09.175Z,78.12
2022-10-19T15:55:09.344Z,78.32
2022-10-19T15:56:12.401Z,78.53
2022-10-19T15:57:09.848Z,78.63
2022-10-19T15:58:10.043Z,78.73
2022-10-19T15:59:10.205Z,78.97
2022-10-19T16:00:10.373Z,79.17
2022-10-19T16:01:10.564Z,78.97
2022-10-19T16:02:10.879Z,79.17
2022-10-19T16:03:11.156Z,78.97
2022-10-19T16:04:11.314Z,79.17
2022-10-19T16:05:11.626Z,80.29
2022-10-19T16:06:11.664Z,80.40
2022-10-19T16:07:11.826Z,81.56
2022-10-19T16:08:12.587Z,80.84
2022-10-19T16:09:12.223Z,81.76
2022-10-19T16:10:12.326Z,81.04
2022-10-19T16:11:12.520Z,80.64
2022-10-19T16:12:12.689Z,81.76
2022-10-19T16:13:12.884Z,81.56
2022-10-19T16:14:13.197Z,81.29
2022-10-19T16:15:13.472Z,81.39
2022-10-19T16:16:13.796Z,81.49
2022-10-19T16:17:13.971Z,82.31
2022-10-19T16:18:14.265Z,82.51
2022-10-19T16:19:14.557Z,82.51
2022-10-19T16:20:14.751Z,82.75
2022-10-19T16:21:15.074Z,83.57
2022-10-19T16:22:15.228Z,83.57
2022-10-19T16:23:15.545Z,83.87
2022-10-19T16:24:15.681Z,84.22
2022-10-19T16:25:15.866Z,84.74
2022-10-19T16:26:16.163Z,83.71
2022-10-19T16:27:16.487Z,84.42
2022-10-19T16:28:16.611Z,85.65
2022-10-19T16:29:16.902Z,85.79
2022-10-19T16:30:17.176Z,85.28
2022-10-19T16:31:17.410Z,86.10
2022-10-19T16:32:17.523Z,86.51
2022-10-19T16:33:17.707Z,86.55
2022-10-19T16:34:17.859Z,87.57
2022-10-19T16:35:18.152Z,87.88
2022-10-19T16:36:18.358Z,88.23
2022-10-19T16:37:18.501Z,88.64
2022-10-19T16:38:18.677Z,88.84
2022-10-19T16:39:18.883Z,88.64
2022-10-19T16:40:19.075Z,89.70
2022-10-19T16:41:19.314Z,90.41
2022-10-19T16:42:19.460Z,90.97
2022-10-19T16:43:19.750Z,91.07
2022-10-19T16:44:20.047Z,91.63
2022-10-19T16:45:20.347Z,92.03
2022-10-19T16:46:20.662Z,92.38
2022-10-19T16:47:20.812Z,92.59
2022-10-19T16:48:24.005Z,92.79
2022-10-19T16:49:21.134Z,93.51
2022-10-19T16:50:21.324Z,94.17
2022-10-19T16:51:21.765Z,94.58
2022-10-19T16:52:22.100Z,95.09
2022-10-19T16:53:22.483Z,95.61
2022-10-19T16:54:22.863Z,95.75
2022-10-19T16:55:23.245Z,95.86
2022-10-19T16:56:23.620Z,96.16
2022-10-19T16:57:23.833Z,96.47
2022-10-19T16:58:24.123Z,96.57
2022-10-19T16:59:24.426Z,96.78
2022-10-19T17:00:24.652Z,96.57
2022-10-19T17:01:25.035Z,97.13
2022-10-19T17:02:25.249Z,97.13
2022-10-19T17:03:25.673Z,97.13
2022-10-19T17:04:26.058Z,96.92
2022-10-19T17:05:26.421Z,96.92
2022-10-19T17:06:26.767Z,97.23
2022-10-19T17:07:27.110Z,97.23
2022-10-19T17:08:36.671Z,97.23
2022-10-19T17:09:41.297Z,97.44
2022-10-19T17:10:28.202Z,97.23
2022-10-19T17:11:28.540Z,97.33
2022-10-19T17:12:28.859Z,97.13
2022-10-19T17:13:29.235Z,97.07
2022-10-19T17:14:29.586Z,96.87
2022-10-19T17:15:42.478Z,97.69
2022-10-19T17:16:30.361Z,97.07
2022-10-19T17:17:30.704Z,96.97
2022-10-19T17:18:31.016Z,96.04
2022-10-19T17:19:31.390Z,96.25
2022-10-19T17:20:31.719Z,95.69
2022-10-19T17:21:32.108Z,95.59
2022-10-19T17:22:32.714Z,95.59
2022-10-19T17:23:32.761Z,95.90
2022-10-19T17:24:33.137Z,95.07
2022-10-19T17:25:33.503Z,94.56
2022-10-19T17:26:33.893Z,95.18
2022-10-19T17:27:34.221Z,94.56
2022-10-19T17:28:34.590Z,94.56
2022-10-19T17:29:34.956Z,94.26
2022-10-19T17:30:35.327Z,94.15
2022-10-19T17:31:35.749Z,94.20
2022-10-19T17:32:36.293Z,94.20
2022-10-19T17:33:36.382Z,94.30
2022-10-19T17:34:36.743Z,94.51
2022-10-19T17:35:37.111Z,93.99
2022-10-19T17:36:37.585Z,93.68
2022-10-19T17:37:38.179Z,94.10
2022-10-19T17:38:38.184Z,94.20
2022-10-19T17:39:38.564Z,93.95
2022-10-19T17:40:38.898Z,93.85
2022-10-19T17:41:39.284Z,93.44
2022-10-19T17:42:39.620Z,93.54
2022-10-19T17:43:39.939Z,93.59
2022-10-19T17:44:40.303Z,94.10
2022-10-19T17:45:40.684Z,93.79
2022-10-19T17:46:41.011Z,93.79
2022-10-19T17:47:41.328Z,93.79
2022-10-19T17:48:41.697Z,94.14
2022-10-19T17:49:42.040Z,94.34
2022-10-19T17:50:42.391Z,94.34
2022-10-19T17:51:42.742Z,94.34
2022-10-19T17:52:43.075Z,94.45
2022-10-19T17:53:43.445Z,94.90
2022-10-19T17:54:54.560Z,95.52
2022-10-19T17:55:44.182Z,96.03
2022-10-19T17:56:44.557Z,95.52
2022-10-19T17:57:44.870Z,95.62
2022-10-19T17:58:45.244Z,95.83
2022-10-19T17:59:52.423Z,95.93
2022-10-19T18:00:45.939Z,95.93
2022-10-19T18:01:46.296Z,96.08
2022-10-19T18:02:46.764Z,96.69
2022-10-19T18:03:46.979Z,96.80
2022-10-19T18:04:47.324Z,96.80
2022-10-19T18:05:47.687Z,96.59
2022-10-19T18:06:48.085Z,96.69
2022-10-19T18:07:48.398Z,96.80
2022-10-19T18:08:48.787Z,96.94
2022-10-19T18:09:49.114Z,96.84
2022-10-19T18:10:49.482Z,97.15
2022-10-19T18:11:49.850Z,97.25
2022-10-19T18:12:50.209Z,97.56
2022-10-19T18:13:50.581Z,97.36
2022-10-19T18:14:50.943Z,97.15
2022-10-19T18:15:51.296Z,97.15
2022-10-19T18:16:51.673Z,97.30
2022-10-19T18:17:51.996Z,97.40
2022-10-19T18:18:52.367Z,97.61
2022-10-19T18:19:52.705Z,97.61
2022-10-19T18:20:53.081Z,98.02
2022-10-19T18:21:53.444Z,98.58
2022-10-19T18:22:53.803Z,98.58
2022-10-19T18:23:54.178Z,98.88
2022-10-19T18:24:54.536Z,99.09
2022-10-19T18:25:54.906Z,99.34
2022-10-19T18:26:55.303Z,99.44
2022-10-19T18:27:55.639Z,99.24
2022-10-19T18:28:56.017Z,99.76
2022-10-19T18:29:56.365Z,99.96
2022-10-19T18:30:56.727Z,99.99
2022-10-19T18:31:57.127Z,99.99
2022-10-19T18:32:57.431Z,99.99
2022-10-19T18:33:57.801Z,99.99
2022-10-19T18:34:58.162Z,99.99
2022-10-19T18:35:58.533Z,99.99
2022-10-19T18:36:58.931Z,99.99
2022-10-19T18:37:59.262Z,99.99
2022-10-19T18:38:59.620Z,99.99
2022-10-19T18:39:59.944Z,99.99
2022-10-19T18:41:00.356Z,99.99
2022-10-19T18:42:00.672Z,99.99
2022-10-19T18:43:01.012Z,99.99
2022-10-19T18:44:01.377Z,99.99
2022-10-19T18:45:01.740Z,99.99
2022-10-19T18:46:02.105Z,99.99
2022-10-19T18:47:02.487Z,99.99
2022-10-19T18:48:02.801Z,99.99
2022-10-19T18:49:03.168Z,98.67
2022-10-19T18:50:03.562Z,97.69
2022-10-19T18:51:03.900Z,96.97
2022-10-19T18:52:04.281Z,96.15
2022-10-19T18:53:04.620Z,94.87
2022-10-19T18:54:04.981Z,93.39
2022-10-19T18:55:05.339Z,93.04
2022-10-19T18:56:05.695Z,92.83
2022-10-19T18:57:06.088Z,92.52
2022-10-19T18:58:06.406Z,91.60
2022-10-19T18:59:06.777Z,90.67
2022-10-19T19:00:07.145Z,90.78
2022-10-19T19:01:07.516Z,89.60
2022-10-19T19:02:13.745Z,88.68
2022-10-19T19:03:08.243Z,88.74
2022-10-19T19:04:08.593Z,88.78
2022-10-19T19:05:08.964Z,88.95
2022-10-19T19:06:09.334Z,88.02
2022-10-19T19:07:09.720Z,87.92
2022-10-19T19:08:10.047Z,88.33
2022-10-19T19:09:10.423Z,87.71
2022-10-19T19:10:10.757Z,87.71
2022-10-19T19:11:11.106Z,87.71
2022-10-19T19:12:11.472Z,87.75
2022-10-19T19:13:11.841Z,87.75
2022-10-19T19:14:12.215Z,87.96
2022-10-19T19:15:12.585Z,87.75
2022-10-19T19:16:12.950Z,87.96
2022-10-19T19:17:13.298Z,87.85
2022-10-19T19:18:13.668Z,87.55
2022-10-19T19:19:14.000Z,87.65
2022-10-19T19:20:14.371Z,87.45
2022-10-19T19:21:14.742Z,87.55
2022-10-19T19:22:15.082Z,88.06
2022-10-19T19:23:15.408Z,87.85
2022-10-19T19:24:15.775Z,88.27
2022-10-19T19:25:16.145Z,88.41
2022-10-19T19:26:16.514Z,88.31
2022-10-19T19:27:16.932Z,88.00
2022-10-19T19:28:17.230Z,88.00
2022-10-19T19:29:17.595Z,87.90
2022-10-19T19:30:17.959Z,88.41
2022-10-19T19:31:18.328Z,88.62
2022-10-19T19:32:18.733Z,88.41
2022-10-19T19:33:19.030Z,88.41
2022-10-19T19:34:19.402Z,88.10
2022-10-19T19:35:19.768Z,88.20
2022-10-19T19:36:20.139Z,88.10
2022-10-19T19:37:20.525Z,87.79
2022-10-19T19:38:20.894Z,88.00
2022-10-19T19:39:21.207Z,88.00
2022-10-19T19:40:21.582Z,87.79
2022-10-19T19:41:21.916Z,87.79
2022-10-19T19:42:25.674Z,87.79
2022-10-19T19:43:22.627Z,88.00
2022-10-19T19:44:22.958Z,88.20
2022-10-19T19:45:23.316Z,88.51
2022-10-19T19:46:23.672Z,88.41
2022-10-19T19:47:24.047Z,88.35
2022-10-19T19:48:24.364Z,88.51
2022-10-19T19:49:24.735Z,88.62
2022-10-19T19:50:25.090Z,88.72
2022-10-19T19:51:25.457Z,88.66
2022-10-19T19:52:25.838Z,88.56
2022-10-19T19:53:26.190Z,88.66
2022-10-19T19:54:26.560Z,88.35
2022-10-19T19:55:26.936Z,88.45
2022-10-19T19:56:27.303Z,88.45
2022-10-19T19:57:27.680Z,88.56
2022-10-19T19:58:28.007Z,88.35
2022-10-19T19:59:28.365Z,88.35
2022-10-19T20:00:28.741Z,88.35
2022-10-19T20:01:29.084Z,88.24
2022-10-19T20:02:29.448Z,88.24
2022-10-19T20:03:29.763Z,88.24
2022-10-19T20:04:30.128Z,87.94
2022-10-19T20:05:30.496Z,87.73
2022-10-19T20:06:30.862Z,87.32
2022-10-19T20:07:31.244Z,87.42
2022-10-19T20:08:31.715Z,87.01
2022-10-19T20:09:31.933Z,87.32
2022-10-19T20:10:32.298Z,87.12
2022-10-19T20:11:32.634Z,86.80
2022-10-19T20:12:33.016Z,86.80
2022-10-19T20:13:33.345Z,87.01
2022-10-19T20:14:39.702Z,87.01
2022-10-19T20:15:34.050Z,87.32
2022-10-19T20:16:34.406Z,87.22
2022-10-19T20:17:35.099Z,87.32
2022-10-19T20:18:35.110Z,87.52
2022-10-19T20:19:35.486Z,87.12
2022-10-19T20:20:35.814Z,87.12
2022-10-19T20:21:36.186Z,87.32
2022-10-19T20:22:36.547Z,87.32
2022-10-19T20:23:36.892Z,87.46
2022-10-19T20:24:37.830Z,87.22
2022-10-19T20:25:37.594Z,87.46
2022-10-19T20:26:37.939Z,87.57
2022-10-19T20:27:38.443Z,87.57
2022-10-19T20:28:38.652Z,87.57
2022-10-19T20:29:39.010Z,87.98
2022-10-19T20:30:39.378Z,87.98
2022-10-19T20:31:40.203Z,88.08
2022-10-19T20:32:40.142Z,88.08
2022-10-19T20:33:40.461Z,88.29
2022-10-19T20:34:40.829Z,88.59
2022-10-19T20:35:41.197Z,88.84
2022-10-19T20:36:41.562Z,88.84
2022-10-19T20:37:41.964Z,89.05
2022-10-19T20:38:42.309Z,89.15
2022-10-19T20:39:42.657Z,89.25
2022-10-19T20:40:43.018Z,89.25
2022-10-19T20:41:43.388Z,89.46
2022-10-19T20:42:43.743Z,89.46
2022-10-19T20:43:44.073Z,89.56
2022-10-19T20:44:44.394Z,89.67
2022-10-19T20:45:44.766Z,89.56
2022-10-19T20:46:45.125Z,89.67
2022-10-19T20:47:45.513Z,89.87
2022-10-19T20:48:45.848Z,90.08
2022-10-19T20:49:46.225Z,90.08
2022-10-19T20:50:46.582Z,90.08
2022-10-19T20:51:46.971Z,89.77
2022-10-19T20:52:47.304Z,89.97
2022-10-19T20:53:47.633Z,90.08
2022-10-19T20:54:48.003Z,90.18
2022-10-19T20:55:48.341Z,90.22
2022-10-19T20:56:48.704Z,90.22
2022-10-19T20:57:49.091Z,90.22
2022-10-19T20:58:49.492Z,90.22
2022-10-19T20:59:49.769Z,90.22
2022-10-19T21:00:50.133Z,90.43
2022-10-19T21:01:50.526Z,90.43
2022-10-19T21:02:50.878Z,90.53
2022-10-19T21:03:51.210Z,90.53
2022-10-19T21:04:51.583Z,90.43
2022-10-19T21:05:51.967Z,90.53
2022-10-19T21:06:52.295Z,90.53
2022-10-19T21:07:52.683Z,90.43
2022-10-19T21:08:53.069Z,90.64
2022-10-19T21:09:53.356Z,90.64
2022-10-19T21:10:53.699Z,90.64
2022-10-19T21:11:54.072Z,90.73
2022-10-19T21:12:54.451Z,90.53
2022-10-19T21:13:54.805Z,90.64
2022-10-19T21:14:55.175Z,90.53
